Time;durP1;ratioP1;P1;durP2;ratioP2;P2;SDS_P1;SDS_P2;PMS_P1;PMS_P2;Temp;Humidity;BMP_temperature;BMP_pressure;BME280_temperature;BME280_humidity;BME280_pressure;Samples;Min_cycle;Max_cycle;Signal;HPM_P1;HPM_P2
2021/12/08 00:05:15;;;;;;;5.50;4.90;;;16.70;46.70;;;;;;10486359;28;20212;-64
2021/12/08 00:16:30;;;;;;;6.93;5.10;;;16.60;46.90;;;;;;10496886;28;20208;-63
2021/12/08 00:21:53;;;;;;;5.53;4.70;;;16.60;47.10;;;;;;10508794;28;20196;-63
2021/12/08 00:27:15;;;;;;;5.97;5.07;;;16.60;46.80;;;;;;10506078;28;20231;-63
2021/12/08 00:32:38;;;;;;;6.47;4.33;;;16.60;46.70;;;;;;10492331;28;20205;-63
2021/12/08 00:38:01;;;;;;;5.13;4.53;;;16.60;46.90;;;;;;10489745;28;20219;-63
2021/12/08 00:43:24;;;;;;;4.57;4.13;;;16.60;46.90;;;;;;10495678;28;20204;-63
2021/12/08 00:48:49;;;;;;;5.23;4.73;;;16.70;46.70;;;;;;10495432;28;20599;-63
2021/12/08 00:54:12;;;;;;;5.70;4.50;;;16.70;46.90;;;;;;10492879;28;20274;-63
2021/12/08 00:59:35;;;;;;;5.37;4.30;;;16.80;46.50;;;;;;10495323;28;20702;-63
2021/12/08 01:04:57;;;;;;;5.03;4.47;;;16.70;46.80;;;;;;10495171;28;20220;-61
2021/12/08 01:10:23;;;;;;;5.10;4.57;;;16.80;46.80;;;;;;10494334;28;20302;-63
2021/12/08 01:15:51;;;;;;;3.97;3.57;;;16.80;46.60;;;;;;10493810;28;20279;-63
2021/12/08 01:21:14;;;;;;;4.23;3.00;;;16.80;47.30;;;;;;10494386;28;20188;-63
2021/12/08 01:26:37;;;;;;;4.83;3.50;;;16.80;47.50;;;;;;10493832;28;20235;-63
2021/12/08 01:31:59;;;;;;;4.17;3.60;;;16.80;47.20;;;;;;10493872;28;20192;-63
2021/12/08 01:37:22;;;;;;;5.17;4.47;;;16.80;47.10;;;;;;10492762;28;20564;-63
2021/12/08 01:42:49;;;;;;;7.87;4.53;;;16.80;46.40;;;;;;10493953;28;20196;-63
2021/12/08 01:48:14;;;;;;;5.03;4.10;;;16.80;46.40;;;;;;10493060;28;20220;-63
2021/12/08 01:53:36;;;;;;;3.93;3.53;;;16.80;46.40;;;;;;10492860;28;20200;-64
2021/12/08 01:59:00;;;;;;;3.97;3.57;;;16.80;47.20;;;;;;10491024;28;20734;-63
2021/12/08 02:04:22;;;;;;;4.20;3.80;;;16.90;46.60;;;;;;10493244;28;20212;-61
2021/12/08 02:09:44;;;;;;;3.80;3.20;;;16.80;46.60;;;;;;10493327;28;20287;-63
2021/12/08 02:15:11;;;;;;;3.50;3.13;;;16.80;46.90;;;;;;10491891;28;20185;-62
2021/12/08 02:20:34;;;;;;;4.17;3.10;;;16.90;46.80;;;;;;10491156;28;20659;-63
2021/12/08 02:25:59;;;;;;;3.70;2.97;;;16.90;46.50;;;;;;10492826;28;20224;-63
2021/12/08 02:31:30;;;;;;;4.17;3.47;;;16.90;46.40;;;;;;10490125;28;20195;-64
2021/12/08 02:48:13;;;;;;;4.40;2.87;;;16.80;46.90;;;;;;10492986;28;20219;-64
2021/12/08 02:53:36;;;;;;;3.17;2.27;;;16.80;47.60;;;;;;10491800;28;20198;-61
2021/12/08 02:59:00;;;;;;;3.00;2.70;;;16.80;46.40;;;;;;10491354;28;20723;-63
2021/12/08 03:04:22;;;;;;;3.20;2.37;;;16.80;45.90;;;;;;10491475;28;20223;-64
2021/12/08 03:09:44;;;;;;;4.07;2.73;;;16.80;46.50;;;;;;10491454;28;20246;-63
2021/12/08 03:15:10;;;;;;;2.57;2.37;;;16.80;46.10;;;;;;10491373;28;20192;-64
2021/12/08 03:20:39;;;;;;;2.73;2.50;;;16.80;45.90;;;;;;10491483;28;20216;-63
2021/12/08 03:26:05;;;;;;;3.50;2.67;;;16.90;46.30;;;;;;10490792;28;20216;-63
2021/12/08 03:31:33;;;;;;;4.33;2.63;;;16.90;46.30;;;;;;10494450;28;20566;-63
2021/12/08 03:36:55;;;;;;;3.50;2.20;;;16.90;45.90;;;;;;10513523;28;20290;-62
2021/12/08 03:42:18;;;;;;;3.53;2.33;;;16.80;45.90;;;;;;10510018;28;20579;-63
2021/12/08 03:47:46;;;;;;;2.30;2.10;;;16.80;46.00;;;;;;10498001;28;20224;-63
2021/12/08 03:53:12;;;;;;;2.57;2.20;;;16.80;46.00;;;;;;10497099;28;20220;-64
2021/12/08 03:58:34;;;;;;;3.13;1.90;;;16.80;46.60;;;;;;10497716;28;20560;-64
2021/12/08 04:04:02;;;;;;;2.50;1.93;;;16.80;46.60;;;;;;10495837;28;20714;-63
2021/12/08 04:09:30;;;;;;;2.87;1.93;;;16.80;46.20;;;;;;10495063;28;20220;-64
2021/12/08 04:14:56;;;;;;;3.57;2.37;;;16.80;46.10;;;;;;10495014;28;20189;-63
2021/12/08 04:20:26;;;;;;;2.73;1.97;;;16.80;46.40;;;;;;10496925;28;20216;-63
2021/12/08 04:25:53;;;;;;;1.90;1.53;;;16.80;46.80;;;;;;10496403;28;20256;-61
2021/12/08 04:31:18;;;;;;;2.60;1.80;;;16.80;46.40;;;;;;10496589;28;20207;-63
2021/12/08 04:36:48;;;;;;;2.57;1.40;;;16.90;46.50;;;;;;10494626;28;20259;-63
2021/12/08 04:42:15;;;;;;;1.80;1.40;;;16.80;46.10;;;;;;10490398;28;20192;-63
2021/12/08 04:47:51;;;;;;;2.23;1.60;;;16.80;46.90;;;;;;10490094;28;20231;-63
2021/12/08 04:53:32;;;;;;;2.07;1.30;;;16.80;47.10;;;;;;10484671;28;20275;-64
2021/12/08 05:04:49;;;;;;;1.93;1.40;;;17.00;46.30;;;;;;10488800;28;20212;-63
2021/12/08 05:10:16;;;;;;;3.87;1.70;;;17.00;46.20;;;;;;10484132;28;20238;-63
2021/12/08 05:15:41;;;;;;;2.23;1.37;;;17.00;45.50;;;;;;10481210;28;20200;-64
2021/12/08 05:21:07;;;;;;;1.70;1.30;;;16.90;45.60;;;;;;10488536;28;20667;-65
2021/12/08 05:26:35;;;;;;;1.37;1.20;;;16.90;45.70;;;;;;10487790;28;20228;-63
2021/12/08 05:31:58;;;;;;;2.17;1.30;;;16.90;46.00;;;;;;10488561;28;20204;-64
2021/12/08 05:37:24;;;;;;;1.83;1.37;;;16.90;46.00;;;;;;10492000;28;20239;-64
2021/12/08 05:42:48;;;;;;;1.83;1.30;;;16.90;45.80;;;;;;10488065;28;20225;-63
2021/12/08 05:48:11;;;;;;;1.53;1.20;;;16.90;45.90;;;;;;10489593;28;20224;-63
2021/12/08 05:53:35;;;;;;;1.40;1.20;;;16.90;46.00;;;;;;10490593;28;20283;-63
2021/12/08 05:59:01;;;;;;;1.07;0.97;;;17.00;46.00;;;;;;10492586;28;20219;-63
2021/12/08 06:04:27;;;;;;;1.73;1.10;;;17.00;45.80;;;;;;10470801;28;20575;-63
2021/12/08 06:09:51;;;;;;;1.20;1.10;;;16.90;45.80;;;;;;10489306;28;20227;-63
2021/12/08 06:15:16;;;;;;;1.10;0.90;;;16.80;46.00;;;;;;10491306;28;20674;-63
2021/12/08 06:20:39;;;;;;;1.70;1.10;;;16.90;47.00;;;;;;10489449;28;20223;-63
2021/12/08 06:26:01;;;;;;;1.10;1.00;;;16.90;46.20;;;;;;10488916;28;20223;-63
2021/12/08 06:31:28;;;;;;;1.50;1.17;;;16.90;46.00;;;;;;10489325;28;20196;-62
2021/12/08 06:36:53;;;;;;;0.80;0.80;;;16.80;46.10;;;;;;10490740;28;20583;-63
2021/12/08 06:42:18;;;;;;;1.27;1.10;;;16.80;46.10;;;;;;10488998;28;20219;-63
2021/12/08 06:47:42;;;;;;;2.67;1.17;;;16.80;46.10;;;;;;10488700;28;20603;-64
2021/12/08 06:53:04;;;;;;;1.57;1.10;;;16.90;46.30;;;;;;10490004;28;20195;-64
2021/12/08 06:58:32;;;;;;;0.90;0.90;;;16.90;46.20;;;;;;10487190;28;20209;-63
2021/12/08 07:04:09;;;;;;;1.03;0.90;;;16.90;46.10;;;;;;10490171;28;20184;-63
2021/12/08 07:09:40;;;;;;;1.30;1.00;;;16.90;46.00;;;;;;10496533;28;20213;-63
2021/12/08 07:15:06;;;;;;;1.40;1.15;;;16.90;46.00;;;;;;10489124;28;20430;-72
2021/12/08 07:20:45;;;;;;;1.90;1.10;;;17.60;44.20;;;;;;10497547;28;20213;-71
2021/12/08 07:26:11;;;;;;;1.23;0.90;;;17.20;45.40;;;;;;10485324;28;20216;-71
2021/12/08 07:31:36;;;;;;;0.90;0.90;;;17.00;46.00;;;;;;10496678;28;20208;-71
2021/12/08 07:37:03;;;;;;;1.40;0.90;;;16.90;46.30;;;;;;10496386;28;20235;-72
2021/12/08 07:42:29;;;;;;;1.90;1.10;;;16.80;46.60;;;;;;10509453;28;20193;-74
2021/12/08 07:47:54;;;;;;;1.20;1.10;;;16.80;46.80;;;;;;10495351;28;20212;-71
2021/12/08 07:53:20;;;;;;;1.90;1.10;;;16.80;47.00;;;;;;10496784;28;20659;-73
2021/12/08 07:58:46;;;;;;;1.27;1.13;;;16.70;47.30;;;;;;10495367;28;20583;-72
2021/12/08 08:04:10;;;;;;;1.07;0.97;;;16.70;47.40;;;;;;10484490;28;20200;-73
2021/12/08 08:09:38;;;;;;;1.83;1.10;;;16.60;47.40;;;;;;10495341;28;20231;-71
2021/12/08 08:15:10;;;;;;;1.47;1.10;;;16.60;47.40;;;;;;10495839;28;20204;-72
2021/12/08 08:20:35;;;;;;;2.87;1.20;;;16.60;47.60;;;;;;10495532;28;20715;-73
2021/12/08 08:26:00;;;;;;;2.03;1.33;;;16.60;47.60;;;;;;10494909;28;20216;-72
2021/12/08 08:31:25;;;;;;;2.63;1.70;;;16.60;47.60;;;;;;10491070;28;20683;-72
2021/12/08 08:36:50;;;;;;;2.80;1.30;;;16.60;47.60;;;;;;10494574;28;20217;-71
2021/12/08 08:42:19;;;;;;;1.97;1.30;;;16.70;47.90;;;;;;10492025;28;20204;-72
2021/12/08 08:47:45;;;;;;;1.47;1.37;;;16.70;47.80;;;;;;10493678;28;20714;-71
2021/12/08 08:53:08;;;;;;;2.17;1.47;;;16.80;47.50;;;;;;10490364;28;20192;-72
2021/12/08 08:58:34;;;;;;;2.00;1.40;;;16.80;47.40;;;;;;10484379;28;20246;-72
2021/12/08 09:03:58;;;;;;;2.07;1.50;;;16.80;47.30;;;;;;10493013;28;20196;-72
2021/12/08 09:09:25;;;;;;;2.13;1.43;;;16.80;47.70;;;;;;10492756;28;20220;-73
2021/12/08 09:14:53;;;;;;;2.00;1.40;;;16.80;47.80;;;;;;10485854;28;20193;-72
2021/12/08 09:20:22;;;;;;;1.70;1.50;;;16.80;47.50;;;;;;10492461;28;20691;-72
2021/12/08 09:25:48;;;;;;;1.73;1.40;;;16.80;47.50;;;;;;10490600;28;20213;-72
2021/12/08 09:31:18;;;;;;;1.83;1.40;;;16.80;47.70;;;;;;10491652;28;20208;-72
2021/12/08 09:36:46;;;;;;;3.30;2.00;;;16.80;47.90;;;;;;10492139;28;20251;-72
2021/12/08 09:42:12;;;;;;;2.00;1.70;;;16.80;47.80;;;;;;10491398;28;20217;-72
2021/12/08 09:47:35;;;;;;;4.87;2.00;;;16.80;47.90;;;;;;10492168;28;20595;-71
2021/12/08 09:52:58;;;;;;;2.53;1.80;;;16.80;47.80;;;;;;10491832;28;20583;-74
2021/12/08 09:58:20;;;;;;;2.47;1.57;;;16.80;48.00;;;;;;10492649;28;20224;-72
2021/12/08 10:03:45;;;;;;;2.73;1.63;;;16.80;48.20;;;;;;10492615;28;20209;-65
2021/12/08 10:09:08;;;;;;;1.97;1.37;;;16.90;47.90;;;;;;10491382;28;20227;-72
2021/12/08 10:14:30;;;;;;;3.43;1.90;;;16.90;48.30;;;;;;10491728;28;20207;-72
2021/12/08 10:20:09;;;;;;;2.27;1.60;;;16.90;47.80;;;;;;10491126;28;20216;-72
2021/12/08 10:25:36;;;;;;;2.40;1.60;;;16.90;47.70;;;;;;10490495;28;20196;-71
2021/12/08 10:31:06;;;;;;;3.07;1.60;;;16.90;48.00;;;;;;10490300;28;20603;-72
2021/12/08 10:36:44;;;;;;;3.57;1.70;;;16.90;48.10;;;;;;10490499;28;20604;-72
2021/12/08 10:42:13;;;;;;;2.40;1.80;;;16.90;47.90;;;;;;10483377;28;20192;-70
2021/12/08 10:47:39;;;;;;;3.87;1.47;;;16.80;47.80;;;;;;10497751;28;20223;-72
2021/12/08 10:58:50;;;;;;;3.13;1.83;;;16.80;48.20;;;;;;10495558;28;20334;-65
2021/12/08 11:04:16;;;;;;;2.83;1.77;;;16.90;48.00;;;;;;10486383;28;20211;-65
2021/12/08 11:09:43;;;;;;;2.23;1.80;;;17.00;47.80;;;;;;10496393;28;20216;-65
2021/12/08 11:15:20;;;;;;;3.60;2.07;;;17.00;47.80;;;;;;10497307;28;20205;-65
2021/12/08 11:20:50;;;;;;;2.20;1.77;;;17.10;47.50;;;;;;10497520;28;20283;-65
2021/12/08 11:26:18;;;;;;;3.97;2.00;;;17.10;47.30;;;;;;10486196;28;20229;-64
2021/12/08 11:31:42;;;;;;;2.70;1.70;;;17.10;47.30;;;;;;10495503;28;20201;-64
2021/12/08 11:37:08;;;;;;;2.30;1.30;;;17.10;47.50;;;;;;10496460;28;20239;-65
2021/12/08 11:42:35;;;;;;;4.10;2.10;;;17.10;47.60;;;;;;10496689;28;20761;-64
2021/12/08 11:47:57;;;;;;;2.73;1.80;;;17.00;48.00;;;;;;10496341;28;20225;-65
2021/12/08 11:53:22;;;;;;;2.37;2.00;;;16.90;48.40;;;;;;10494428;28;20189;-66
2021/12/08 11:58:56;;;;;;;2.37;1.90;;;16.80;48.60;;;;;;10496326;28;20235;-65
2021/12/08 12:04:18;;;;;;;2.70;2.30;;;16.80;49.00;;;;;;10485542;28;20201;-65
2021/12/08 12:09:41;;;;;;;3.03;2.23;;;16.70;49.20;;;;;;10494900;28;20232;-65
2021/12/08 12:15:06;;;;;;;1.40;1.30;;;16.70;49.50;;;;;;10495012;28;20579;-65
2021/12/08 12:20:31;;;;;;;4.03;2.20;;;16.60;49.60;;;;;;10494753;28;20687;-65
2021/12/08 12:26:08;;;;;;;2.70;1.63;;;16.70;49.80;;;;;;10493299;28;20197;-66
2021/12/08 12:31:43;;;;;;;2.87;2.00;;;16.70;49.70;;;;;;10491776;28;20199;-65
2021/12/08 12:37:26;;;;;;;2.63;1.90;;;16.70;49.60;;;;;;10491086;28;20212;-65
2021/12/08 12:42:53;;;;;;;3.93;2.23;;;16.70;49.50;;;;;;10495107;28;20552;-65
2021/12/08 12:48:20;;;;;;;2.33;1.57;;;16.80;49.40;;;;;;10482356;28;20733;-65
2021/12/08 12:53:45;;;;;;;3.30;1.73;;;16.90;49.60;;;;;;10495905;28;20283;-65
2021/12/08 12:59:14;;;;;;;2.53;1.77;;;17.00;49.80;;;;;;10493805;28;20220;-65
2021/12/08 13:04:51;;;;;;;2.27;1.70;;;17.00;49.50;;;;;;10483429;28;20196;-65
2021/12/08 13:10:19;;;;;;;3.87;1.87;;;17.10;49.10;;;;;;10490099;28;20220;-65
2021/12/08 13:15:44;;;;;;;2.60;1.73;;;17.10;48.90;;;;;;10488305;28;20196;-65
2021/12/08 13:21:12;;;;;;;4.03;2.43;;;17.10;48.90;;;;;;10490068;28;20196;-65
2021/12/08 13:26:47;;;;;;;4.27;2.43;;;17.20;48.30;;;;;;10484099;28;20212;-65
2021/12/08 13:32:11;;;;;;;2.80;1.90;;;17.20;47.80;;;;;;10489026;28;20196;-65
2021/12/08 13:37:35;;;;;;;3.67;2.20;;;17.10;47.80;;;;;;10486331;28;20683;-66
2021/12/08 13:43:05;;;;;;;3.20;2.10;;;17.10;47.80;;;;;;10491352;28;20196;-65
2021/12/08 13:48:27;;;;;;;4.27;2.50;;;17.10;47.80;;;;;;10490151;28;20699;-66
2021/12/08 13:54:22;;;;;;;2.67;1.87;;;17.10;48.10;;;;;;10489359;28;20211;-66
2021/12/08 13:59:57;;;;;;;3.03;2.20;;;17.00;48.30;;;;;;10493677;28;20225;-65
2021/12/08 14:05:22;;;;;;;3.43;2.10;;;16.90;48.40;;;;;;10490988;28;20888;-65
2021/12/08 14:10:47;;;;;;;3.13;2.10;;;16.90;48.40;;;;;;10482626;28;20346;-69
2021/12/08 14:16:12;;;;;;;2.87;1.80;;;16.90;48.40;;;;;;10490032;28;20266;-70
2021/12/08 14:21:36;;;;;;;3.40;2.00;;;17.00;48.60;;;;;;10490563;28;20201;-70
2021/12/08 14:26:58;;;;;;;4.57;1.97;;;17.00;49.50;;;;;;10484871;28;20309;-70
2021/12/08 14:32:22;;;;;;;4.43;1.80;;;17.00;49.10;;;;;;10490697;28;20698;-70
2021/12/08 14:37:44;;;;;;;2.70;1.83;;;17.00;49.30;;;;;;10486739;28;20223;-70
2021/12/08 14:43:06;;;;;;;2.73;1.80;;;17.10;49.50;;;;;;10485425;28;20192;-70
2021/12/08 14:48:29;;;;;;;3.00;2.03;;;17.10;48.90;;;;;;10489294;28;20212;-71
2021/12/08 14:53:52;;;;;;;3.13;2.10;;;17.20;48.50;;;;;;10489363;28;20197;-70
2021/12/08 14:59:14;;;;;;;3.07;2.20;;;17.20;48.70;;;;;;10487225;28;20227;-71
2021/12/08 15:04:39;;;;;;;3.70;2.40;;;17.20;48.40;;;;;;10483713;28;20201;-70
2021/12/08 15:10:06;;;;;;;4.88;2.88;;;17.10;48.20;;;;;;10477779;28;20951;-66
2021/12/08 15:15:31;;;;;;;3.97;2.50;;;18.00;46.20;;;;;;10489431;28;20200;-65
2021/12/08 15:21:00;;;;;;;3.33;2.20;;;17.50;47.50;;;;;;10489327;28;20200;-67
2021/12/08 15:26:24;;;;;;;3.15;2.67;;;17.20;48.30;;;;;;10490563;28;20415;-65
2021/12/08 15:31:52;;;;;;;3.43;2.30;;;17.80;47.00;;;;;;10498218;28;20196;-65
2021/12/08 15:37:18;;;;;;;4.05;2.90;;;17.30;48.00;;;;;;10494900;28;20410;-65
2021/12/08 15:42:40;;;;;;;5.40;3.10;;;17.90;46.30;;;;;;10457121;28;20414;-65
2021/12/08 15:48:02;;;;;;;3.83;2.50;;;18.20;45.90;;;;;;10497123;28;20228;-65
2021/12/08 15:53:28;;;;;;;4.27;2.40;;;17.40;47.90;;;;;;10498093;28;20267;-64
2021/12/08 15:58:52;;;;;;;3.77;2.47;;;17.10;48.70;;;;;;10497457;28;20220;-65
2021/12/08 16:04:14;;;;;;;2.73;2.13;;;17.00;49.00;;;;;;10497392;28;20806;-64
2021/12/08 16:09:39;;;;;;;4.15;3.10;;;16.90;49.00;;;;;;10493603;28;20523;-64
2021/12/08 16:15:03;;;;;;;3.73;2.90;;;17.80;46.90;;;;;;10492164;28;20193;-65
2021/12/08 16:20:29;;;;;;;3.27;2.30;;;17.20;48.10;;;;;;10495705;28;20291;-66
2021/12/08 16:25:57;;;;;;;3.77;2.57;;;17.00;48.40;;;;;;10534848;22;20681;-63
2021/12/08 16:31:19;;;;;;;2.97;2.50;;;16.90;48.40;;;;;;10556113;28;20216;-63
2021/12/08 16:36:41;;;;;;;3.63;2.73;;;17.00;48.30;;;;;;10505181;28;20220;-64
2021/12/08 16:47:45;;;;;;;4.13;2.50;;;17.10;47.80;;;;;;10470406;28;20229;-63
2021/12/08 16:53:08;;;;;;;4.50;2.73;;;17.10;47.60;;;;;;10460894;28;20188;-64
2021/12/08 16:58:32;;;;;;;3.97;2.93;;;17.10;47.40;;;;;;10496020;28;20208;-63
2021/12/08 17:03:54;;;;;;;5.17;3.57;;;17.20;47.30;;;;;;10490127;28;20192;-64
2021/12/08 17:09:17;;;;;;;4.97;2.90;;;17.20;47.10;;;;;;10494972;28;20215;-64
2021/12/08 17:14:41;;;;;;;4.33;3.33;;;17.20;46.90;;;;;;10485059;28;20201;-63
2021/12/08 17:20:05;;;;;;;5.50;3.50;;;17.20;47.00;;;;;;10453352;28;20204;-63
2021/12/08 17:25:27;;;;;;;5.03;3.93;;;17.10;47.20;;;;;;10452379;28;20237;-64
2021/12/08 17:30:51;;;;;;;5.70;4.70;;;17.00;47.20;;;;;;10452328;28;20209;-64
2021/12/08 17:36:15;;;;;;;4.83;3.87;;;17.00;47.50;;;;;;10469882;28;20228;-64
2021/12/08 17:41:38;;;;;;;5.83;4.00;;;16.90;47.70;;;;;;10453038;28;20199;-64
2021/12/08 17:47:01;;;;;;;4.90;3.87;;;16.90;47.90;;;;;;10470663;28;20311;-64
2021/12/08 17:52:24;;;;;;;5.40;4.17;;;16.80;47.90;;;;;;10490432;28;20199;-64
2021/12/08 17:57:47;;;;;;;4.93;3.97;;;16.80;48.00;;;;;;10471049;28;20212;-64
2021/12/08 18:03:12;;;;;;;7.43;4.93;;;16.80;48.10;;;;;;10468698;28;20197;-63
2021/12/08 18:08:34;;;;;;;5.80;4.13;;;16.70;48.20;;;;;;10469926;28;20212;-65
2021/12/08 18:13:57;;;;;;;6.13;4.43;;;16.70;48.30;;;;;;10472007;28;20205;-64
2021/12/08 18:19:20;;;;;;;6.17;5.00;;;16.70;48.30;;;;;;10469847;28;20223;-64
2021/12/08 18:24:42;;;;;;;5.23;4.47;;;16.70;48.10;;;;;;10452002;28;20231;-63
2021/12/08 18:30:07;;;;;;;6.47;4.97;;;16.70;47.80;;;;;;10450741;28;20217;-63
2021/12/08 18:35:40;;;;;;;6.50;5.23;;;16.70;47.60;;;;;;10451407;28;20213;-63
2021/12/08 18:41:06;;;;;;;7.07;5.70;;;16.70;47.60;;;;;;10469037;28;20568;-63
2021/12/08 18:46:29;;;;;;;7.83;5.50;;;16.80;47.80;;;;;;10465868;28;20221;-64
2021/12/08 18:51:52;;;;;;;6.33;5.40;;;16.70;47.70;;;;;;10491828;28;20571;-64
2021/12/08 18:57:14;;;;;;;7.03;5.30;;;16.70;47.70;;;;;;10461610;28;20219;-65
2021/12/08 19:02:37;;;;;;;10.77;5.87;;;16.70;47.80;;;;;;10492896;28;20208;-65
2021/12/08 19:08:02;;;;;;;7.73;5.23;;;16.70;48.30;;;;;;10492248;28;20209;-65
2021/12/08 19:13:26;;;;;;;5.83;4.77;;;16.70;48.40;;;;;;10492592;28;20564;-65
2021/12/08 19:18:48;;;;;;;7.73;5.30;;;16.70;48.50;;;;;;10493008;28;20213;-66
2021/12/08 19:24:12;;;;;;;6.67;5.10;;;16.70;48.50;;;;;;10493611;28;20200;-66
2021/12/08 19:29:34;;;;;;;8.03;5.90;;;16.70;48.50;;;;;;10496092;28;20224;-64
2021/12/08 19:34:58;;;;;;;7.73;6.30;;;16.70;48.40;;;;;;10497187;28;20200;-65
2021/12/08 19:40:21;;;;;;;9.13;6.23;;;16.80;48.10;;;;;;10496612;28;20207;-65
2021/12/08 19:45:46;;;;;;;6.90;5.60;;;16.80;47.90;;;;;;10492253;28;20225;-65
2021/12/08 19:51:08;;;;;;;9.07;6.77;;;16.80;47.90;;;;;;10484267;28;20706;-65
2021/12/08 19:56:32;;;;;;;8.13;6.23;;;16.80;48.10;;;;;;10487151;28;20223;-65
2021/12/08 20:01:54;;;;;;;7.10;6.27;;;16.80;48.30;;;;;;10498134;28;20203;-67
2021/12/08 20:07:16;;;;;;;7.17;5.77;;;16.80;48.30;;;;;;10466269;28;20221;-67
2021/12/08 20:12:40;;;;;;;7.80;6.53;;;16.70;48.50;;;;;;10455123;28;20672;-64
2021/12/08 20:18:03;;;;;;;7.83;5.80;;;16.60;49.20;;;;;;10483072;28;20223;-67
2021/12/08 20:23:26;;;;;;;8.10;6.07;;;16.60;48.80;;;;;;10492079;28;20196;-67
2021/12/08 20:28:54;;;;;;;8.27;6.27;;;16.60;48.90;;;;;;10490695;28;20228;-68
2021/12/08 20:34:16;;;;;;;7.13;6.20;;;16.60;48.70;;;;;;10488592;28;20196;-68
2021/12/08 20:39:38;;;;;;;8.53;6.73;;;16.60;48.20;;;;;;10490063;28;20216;-64
2021/12/08 20:45:02;;;;;;;7.13;5.93;;;16.60;48.00;;;;;;10490777;28;20212;-66
2021/12/08 20:50:25;;;;;;;7.70;6.20;;;16.70;47.90;;;;;;10489802;28;20216;-67
2021/12/08 20:55:50;;;;;;;8.37;6.77;;;16.80;47.60;;;;;;10489765;28;20223;-67
2021/12/08 21:01:23;;;;;;;9.73;6.17;;;16.90;47.40;;;;;;10491940;28;20219;-67
2021/12/08 21:06:45;;;;;;;8.20;7.20;;;17.00;47.20;;;;;;10490666;28;20758;-67
2021/12/08 21:12:08;;;;;;;8.83;7.07;;;17.00;46.90;;;;;;10494538;28;20239;-67
2021/12/08 21:17:31;;;;;;;8.30;6.37;;;17.00;46.90;;;;;;10479009;28;20217;-66
2021/12/08 21:22:54;;;;;;;9.83;7.50;;;17.00;47.10;;;;;;10469710;28;20208;-68
2021/12/08 21:28:16;;;;;;;7.23;6.07;;;17.00;47.00;;;;;;10492565;28;20223;-67
2021/12/08 21:33:42;;;;;;;7.03;6.00;;;17.00;47.00;;;;;;10492260;28;20197;-67
2021/12/08 21:39:06;;;;;;;8.93;7.57;;;17.00;46.90;;;;;;10452174;28;20244;-67
2021/12/08 21:44:28;;;;;;;9.63;7.73;;;17.00;46.80;;;;;;10452945;28;20545;-66
2021/12/08 21:49:51;;;;;;;9.53;7.07;;;17.00;46.90;;;;;;10453146;28;20220;-66
2021/12/08 21:55:16;;;;;;;8.47;6.80;;;16.90;47.30;;;;;;10452536;28;20577;-67
2021/12/08 22:00:39;;;;;;;7.53;6.60;;;16.80;47.60;;;;;;10452492;28;20193;-67
2021/12/08 22:06:03;;;;;;;8.73;7.03;;;16.70;47.90;;;;;;10451368;28;20229;-66
2021/12/08 22:11:25;;;;;;;7.90;6.77;;;16.60;48.10;;;;;;10452762;28;20684;-67
2021/12/08 22:16:47;;;;;;;9.77;7.87;;;16.60;48.20;;;;;;10467770;28;20225;-67
2021/12/08 22:22:10;;;;;;;10.47;8.30;;;16.60;48.20;;;;;;10490024;28;20193;-66
2021/12/08 22:27:33;;;;;;;10.60;7.67;;;16.50;48.20;;;;;;10539562;22;20226;-68
2021/12/08 22:32:55;;;;;;;9.63;7.80;;;16.60;48.20;;;;;;10562594;28;20580;-68
2021/12/08 22:38:19;;;;;;;8.73;7.00;;;16.60;48.20;;;;;;10521367;28;20212;-68
2021/12/08 22:43:41;;;;;;;9.20;7.57;;;16.60;48.40;;;;;;10498830;28;20192;-68
2021/12/08 22:49:04;;;;;;;9.50;7.53;;;16.50;48.30;;;;;;10499688;28;20220;-68
2021/12/08 22:54:28;;;;;;;8.77;7.27;;;16.50;48.50;;;;;;10528224;28;20649;-68
2021/12/08 22:59:50;;;;;;;9.70;7.60;;;16.50;48.60;;;;;;10538147;28;20372;-68
2021/12/08 23:05:13;;;;;;;10.17;7.97;;;16.50;48.60;;;;;;10539368;28;20580;-68
2021/12/08 23:10:40;;;;;;;10.00;8.63;;;16.50;48.60;;;;;;10538738;28;20695;-68
2021/12/08 23:16:02;;;;;;;9.10;7.63;;;16.50;48.60;;;;;;10528238;28;20213;-67
2021/12/08 23:21:28;;;;;;;10.20;7.70;;;16.40;48.70;;;;;;10498045;28;20193;-68
2021/12/08 23:26:52;;;;;;;11.67;8.07;;;16.40;48.80;;;;;;10509673;28;20247;-68
2021/12/08 23:32:15;;;;;;;9.77;8.13;;;16.40;48.80;;;;;;10497574;28;20585;-68
2021/12/08 23:37:47;;;;;;;9.87;8.17;;;16.40;48.70;;;;;;10497844;28;20223;-68
2021/12/08 23:43:10;;;;;;;10.97;8.07;;;16.40;48.60;;;;;;10496386;28;20193;-68
2021/12/08 23:48:33;;;;;;;11.53;8.70;;;16.50;48.70;;;;;;10496517;28;20220;-68
2021/12/08 23:53:55;;;;;;;11.70;8.87;;;16.40;48.70;;;;;;10503322;28;20203;-69
2021/12/08 23:59:21;;;;;;;11.43;8.30;;;16.40;48.80;;;;;;10496984;28;20212;-68
